createdAt,value
2017-11-29T00:00:25.229Z,0
2017-11-29T00:01:24.670Z,0
2017-11-29T00:02:25.176Z,0
2017-11-29T00:03:24.900Z,0
2017-11-29T00:04:24.349Z,0
2017-11-29T00:05:24.581Z,0
2017-11-29T00:06:24.554Z,0
2017-11-29T00:07:24.835Z,0
2017-11-29T00:08:24.245Z,0
2017-11-29T00:09:24.487Z,0
2017-11-29T00:10:24.724Z,0
2017-11-29T00:11:24.433Z,0
2017-11-29T00:12:24.979Z,0
2017-11-29T00:13:24.395Z,0
2017-11-29T00:14:24.646Z,0
2017-11-29T00:15:24.617Z,0
2017-11-29T00:16:24.254Z,0
2017-11-29T00:17:24.837Z,0
2017-11-29T00:18:24.565Z,0
2017-11-29T00:19:24.531Z,0
2017-11-29T00:20:24.530Z,0
2017-11-29T00:21:24.233Z,0
2017-11-29T00:22:24.496Z,0
2017-11-29T00:23:24.439Z,0
2017-11-29T00:24:24.145Z,0
2017-11-29T00:25:23.852Z,0
2017-11-29T00:26:24.370Z,0
2017-11-29T00:27:24.071Z,0
2017-11-29T00:28:24.310Z,0
2017-11-29T00:29:24.292Z,0
2017-11-29T00:30:24.297Z,0
2017-11-29T00:31:24.271Z,0
2017-11-29T00:32:23.713Z,0
2017-11-29T00:33:24.512Z,0
2017-11-29T00:34:24.201Z,0
2017-11-29T00:35:23.620Z,0
2017-11-29T00:36:23.846Z,0
2017-11-29T00:37:23.555Z,0
2017-11-29T00:38:24.120Z,0
2017-11-29T00:39:24.310Z,0
2017-11-29T00:40:24.030Z,0
2017-11-29T00:41:23.729Z,0
2017-11-29T00:42:23.442Z,0
2017-11-29T00:43:23.686Z,0
2017-11-29T00:44:23.721Z,0
2017-11-29T00:45:23.448Z,0
2017-11-29T00:46:23.649Z,0
2017-11-29T00:47:23.937Z,0
2017-11-29T00:48:23.622Z,0
2017-11-29T00:49:23.595Z,0
2017-11-29T00:50:23.543Z,0
2017-11-29T00:51:23.554Z,0
2017-11-29T00:52:23.264Z,0
2017-11-29T00:53:23.509Z,0
2017-11-29T00:54:23.762Z,0
2017-11-29T00:55:23.443Z,0
2017-11-29T00:56:23.150Z,0
2017-11-29T00:57:23.955Z,0
2017-11-29T00:58:23.680Z,0
2017-11-29T00:59:23.072Z,0
2017-11-29T01:00:23.598Z,0
2017-11-29T01:01:23.075Z,0
2017-11-29T01:02:23.840Z,0
2017-11-29T01:03:22.980Z,0
2017-11-29T01:04:22.959Z,0
2017-11-29T01:05:23.476Z,0
2017-11-29T01:06:23.199Z,0
2017-11-29T01:07:23.460Z,0
2017-11-29T01:08:23.428Z,0
2017-11-29T01:09:23.666Z,0
2017-11-29T01:10:23.659Z,0
2017-11-29T01:11:23.382Z,0
2017-11-29T01:12:23.057Z,0
2017-11-29T01:13:22.779Z,0
2017-11-29T01:14:23.269Z,0
2017-11-29T01:15:23.237Z,0
2017-11-29T01:16:22.973Z,0
2017-11-29T01:17:22.390Z,0
2017-11-29T01:18:22.705Z,0
2017-11-29T01:19:23.175Z,0
2017-11-29T01:20:23.162Z,0
2017-11-29T01:21:22.856Z,0
2017-11-29T01:22:23.132Z,0
2017-11-29T01:23:22.825Z,0
2017-11-29T01:24:22.821Z,0
2017-11-29T01:25:23.023Z,0
2017-11-29T01:26:23.290Z,0
2017-11-29T01:27:22.729Z,0
2017-11-29T01:28:22.723Z,0
2017-11-29T01:29:22.670Z,0
2017-11-29T01:30:22.961Z,0
2017-11-29T01:31:22.635Z,0
2017-11-29T01:32:22.888Z,0
2017-11-29T01:33:22.864Z,0
2017-11-29T01:34:23.119Z,0
2017-11-29T01:35:22.532Z,0
2017-11-29T01:36:23.077Z,0
2017-11-29T01:37:22.483Z,0
2017-11-29T01:38:22.213Z,0
2017-11-29T01:39:22.437Z,0
2017-11-29T01:40:22.689Z,0
2017-11-29T01:41:22.109Z,0
2017-11-29T01:42:22.915Z,0
2017-11-29T01:43:22.617Z,0
2017-11-29T01:44:22.623Z,0
2017-11-29T01:45:21.781Z,0
2017-11-29T01:46:22.277Z,0
2017-11-29T01:47:22.541Z,0
2017-11-29T01:48:21.687Z,0
2017-11-29T01:49:22.499Z,0
2017-11-29T01:50:22.202Z,0
2017-11-29T01:51:22.471Z,0
2017-11-29T01:52:22.187Z,0
2017-11-29T01:53:22.127Z,0
2017-11-29T01:54:22.406Z,0
2017-11-29T01:55:22.652Z,0
2017-11-29T01:56:22.340Z,0
2017-11-29T01:57:22.050Z,0
2017-11-29T01:58:22.308Z,0
2017-11-29T01:59:22.289Z,0
2017-11-29T02:00:22.229Z,0
2017-11-29T02:01:22.228Z,0
2017-11-29T02:02:22.168Z,0
2017-11-29T02:03:21.622Z,0
2017-11-29T02:04:21.600Z,0
2017-11-29T02:05:22.100Z,0
2017-11-29T02:06:21.550Z,0
2017-11-29T02:07:22.093Z,0
2017-11-29T02:08:21.809Z,0
2017-11-29T02:09:22.041Z,0
2017-11-29T02:10:22.006Z,0
2017-11-29T02:11:21.977Z,0
2017-11-29T02:12:21.959Z,0
2017-11-29T02:13:21.672Z,0
2017-11-29T02:14:21.654Z,0
2017-11-29T02:15:21.644Z,0
2017-11-29T02:16:21.794Z,0
2017-11-29T02:17:21.299Z,0
2017-11-29T02:18:21.558Z,0
2017-11-29T02:19:21.539Z,0
2017-11-29T02:20:21.495Z,0
2017-11-29T02:21:21.761Z,0
2017-11-29T02:22:21.454Z,0
2017-11-29T02:23:21.425Z,0
2017-11-29T02:24:21.682Z,0
2017-11-29T02:25:21.388Z,0
2017-11-29T02:26:21.918Z,0
2017-11-29T02:27:21.062Z,0
2017-11-29T02:28:21.600Z,0
2017-11-29T02:29:21.032Z,0
2017-11-29T02:30:21.319Z,0
2017-11-29T02:31:21.526Z,0
2017-11-29T02:32:21.249Z,0
2017-11-29T02:33:21.520Z,0
2017-11-29T02:34:21.755Z,0
2017-11-29T02:35:21.709Z,0
2017-11-29T02:36:21.416Z,0
2017-11-29T02:37:21.384Z,0
2017-11-29T02:38:21.398Z,0
2017-11-29T02:39:21.351Z,0
2017-11-29T02:40:21.059Z,0
2017-11-29T02:41:21.024Z,0
2017-11-29T02:42:21.290Z,0
2017-11-29T02:43:21.267Z,0
2017-11-29T02:44:20.945Z,0
2017-11-29T02:45:21.218Z,0
2017-11-29T02:46:21.191Z,0
2017-11-29T02:47:21.159Z,0
2017-11-29T02:48:21.159Z,0
2017-11-29T02:49:21.109Z,0
2017-11-29T02:50:21.087Z,0
2017-11-29T02:51:21.350Z,0
2017-11-29T02:52:21.332Z,0
2017-11-29T02:53:21.035Z,0
2017-11-29T02:54:20.997Z,0
2017-11-29T02:55:20.718Z,0
2017-11-29T02:56:20.686Z,0
2017-11-29T02:57:20.692Z,0
2017-11-29T02:58:20.655Z,0
2017-11-29T02:59:20.889Z,0
2017-11-29T03:00:20.871Z,0
2017-11-29T03:01:20.854Z,0
2017-11-29T03:02:20.822Z,0
2017-11-29T03:03:19.972Z,0
2017-11-29T03:04:20.492Z,0
2017-11-29T03:05:20.486Z,0
2017-11-29T03:06:20.743Z,0
2017-11-29T03:07:20.720Z,0
2017-11-29T03:08:20.435Z,0
2017-11-29T03:09:20.122Z,0
2017-11-29T03:10:20.367Z,0
2017-11-29T03:11:20.060Z,0
2017-11-29T03:12:20.867Z,0
2017-11-29T03:13:20.285Z,0
2017-11-29T03:14:20.312Z,0
2017-11-29T03:15:20.257Z,0
2017-11-29T03:16:19.982Z,0
2017-11-29T03:17:20.200Z,0
2017-11-29T03:18:20.459Z,0
2017-11-29T03:19:20.433Z,0
2017-11-29T03:20:20.156Z,0
2017-11-29T03:21:20.380Z,0
2017-11-29T03:22:20.099Z,0
2017-11-29T03:23:20.632Z,0
2017-11-29T03:24:19.800Z,0
2017-11-29T03:25:20.311Z,0
2017-11-29T03:26:20.277Z,0
2017-11-29T03:27:20.527Z,0
2017-11-29T03:28:19.951Z,0
2017-11-29T03:29:19.656Z,0
2017-11-29T03:30:19.896Z,0
2017-11-29T03:31:19.613Z,0
2017-11-29T03:32:20.146Z,0
2017-11-29T03:33:20.110Z,0
2017-11-29T03:34:19.260Z,0
2017-11-29T03:35:19.229Z,0
2017-11-29T03:36:19.786Z,0
2017-11-29T03:37:20.284Z,0
2017-11-29T03:38:19.700Z,0
2017-11-29T03:39:20.250Z,0
2017-11-29T03:40:20.210Z,0
2017-11-29T03:41:19.924Z,0
2017-11-29T03:42:19.884Z,0
2017-11-29T03:43:19.359Z,0
2017-11-29T03:44:19.567Z,0
2017-11-29T03:45:19.865Z,0
2017-11-29T03:46:19.785Z,0
2017-11-29T03:47:19.796Z,0
2017-11-29T03:48:19.755Z,0
2017-11-29T03:49:19.457Z,0
2017-11-29T03:50:19.995Z,0
2017-11-29T03:51:19.166Z,0
2017-11-29T03:52:19.382Z,0
2017-11-29T03:53:19.109Z,0
2017-11-29T03:54:19.635Z,0
2017-11-29T03:55:19.353Z,0
2017-11-29T03:56:19.598Z,0
2017-11-29T03:57:19.261Z,0
2017-11-29T03:58:19.276Z,0
2017-11-29T03:59:19.231Z,0
2017-11-29T04:00:19.207Z,0
2017-11-29T04:01:19.472Z,0
2017-11-29T04:02:19.184Z,0
2017-11-29T04:03:19.422Z,0
2017-11-29T04:04:19.121Z,0
2017-11-29T04:05:19.368Z,0
2017-11-29T04:06:19.109Z,0
2017-11-29T04:07:18.792Z,0
2017-11-29T04:08:18.766Z,0
2017-11-29T04:09:18.740Z,0
2017-11-29T04:10:19.246Z,0
2017-11-29T04:11:18.992Z,0
2017-11-29T04:12:18.661Z,0
2017-11-29T04:13:18.952Z,0
2017-11-29T04:14:19.174Z,0
2017-11-29T04:15:19.152Z,0
2017-11-29T04:16:19.620Z,0
2017-11-29T04:17:19.380Z,0
2017-11-29T04:18:18.813Z,0
2017-11-29T04:19:19.062Z,0
2017-11-29T04:20:18.507Z,0
2017-11-29T04:21:18.736Z,0
2017-11-29T04:22:18.997Z,0
2017-11-29T04:23:18.413Z,0
2017-11-29T04:24:18.925Z,0
2017-11-29T04:25:18.908Z,0
2017-11-29T04:26:18.625Z,0
2017-11-29T04:27:18.347Z,0
2017-11-29T04:28:18.572Z,0
2017-11-29T04:29:18.820Z,0
2017-11-29T04:30:18.553Z,0
2017-11-29T04:31:19.059Z,0
2017-11-29T04:32:18.489Z,0
2017-11-29T04:33:19.009Z,0
2017-11-29T04:34:18.719Z,0
2017-11-29T04:35:18.699Z,0
2017-11-29T04:36:18.655Z,0
2017-11-29T04:37:18.100Z,0
2017-11-29T04:38:18.610Z,0
2017-11-29T04:39:18.307Z,0
2017-11-29T04:40:18.821Z,0
2017-11-29T04:41:18.287Z,0
2017-11-29T04:42:18.250Z,0
2017-11-29T04:43:18.209Z,0
2017-11-29T04:44:17.944Z,0
2017-11-29T04:45:18.444Z,0
2017-11-29T04:46:18.439Z,0
2017-11-29T04:47:18.419Z,0
2017-11-29T04:48:18.391Z,0
2017-11-29T04:49:18.677Z,0
2017-11-29T04:50:18.077Z,0
2017-11-29T04:51:18.306Z,0
2017-11-29T04:52:17.755Z,0
2017-11-29T04:53:18.275Z,0
2017-11-29T04:54:17.723Z,0
2017-11-29T04:55:17.964Z,0
2017-11-29T04:56:17.957Z,0
2017-11-29T04:57:17.919Z,0
2017-11-29T04:58:18.488Z,0
2017-11-29T04:59:18.414Z,0
2017-11-29T05:00:17.841Z,0
2017-11-29T05:01:18.079Z,0
2017-11-29T05:02:17.822Z,0
2017-11-29T05:03:17.498Z,0
2017-11-29T05:04:17.768Z,0
2017-11-29T05:05:18.003Z,0
2017-11-29T05:06:17.690Z,0
2017-11-29T05:07:17.402Z,0
2017-11-29T05:08:17.645Z,0
2017-11-29T05:09:17.904Z,0
2017-11-29T05:10:17.320Z,0
2017-11-29T05:11:17.580Z,0
2017-11-29T05:12:18.172Z,0
2017-11-29T05:13:17.536Z,0
2017-11-29T05:14:17.516Z,0
2017-11-29T05:15:17.472Z,0
2017-11-29T05:16:17.742Z,0
2017-11-29T05:17:18.007Z,0
2017-11-29T05:18:17.731Z,0
2017-11-29T05:19:17.440Z,0
2017-11-29T05:20:17.366Z,0
2017-11-29T05:21:17.612Z,0
2017-11-29T05:22:17.604Z,0
2017-11-29T05:23:17.840Z,0
2017-11-29T05:24:17.550Z,0
2017-11-29T05:25:17.561Z,0
2017-11-29T05:26:17.507Z,0
2017-11-29T05:27:17.221Z,0
2017-11-29T05:28:17.469Z,0
2017-11-29T05:29:16.910Z,0
2017-11-29T05:30:17.128Z,0
2017-11-29T05:31:17.692Z,0
2017-11-29T05:32:17.097Z,0
2017-11-29T05:33:17.348Z,0
2017-11-29T05:34:16.785Z,0
2017-11-29T05:35:17.052Z,0
2017-11-29T05:36:17.295Z,0
2017-11-29T05:37:16.715Z,0
2017-11-29T05:38:16.701Z,0
2017-11-29T05:39:16.402Z,0
2017-11-29T05:40:16.917Z,0
2017-11-29T05:41:17.166Z,0
2017-11-29T05:42:16.898Z,0
2017-11-29T05:43:17.407Z,0
2017-11-29T05:44:16.879Z,0
2017-11-29T05:45:17.337Z,0
2017-11-29T05:46:17.067Z,0
2017-11-29T05:47:17.052Z,0
2017-11-29T05:48:16.704Z,0
2017-11-29T05:49:17.014Z,0
2017-11-29T05:50:16.704Z,0
2017-11-29T05:51:16.952Z,0
2017-11-29T05:52:16.597Z,0
2017-11-29T05:53:16.606Z,0
2017-11-29T05:54:17.085Z,0
2017-11-29T05:55:16.796Z,0
2017-11-29T05:56:16.776Z,0
2017-11-29T05:57:17.012Z,0
2017-11-29T05:58:15.943Z,0
2017-11-29T05:59:16.755Z,0
2017-11-29T06:00:16.146Z,0
2017-11-29T06:01:16.385Z,0
2017-11-29T06:02:16.098Z,0
2017-11-29T06:03:16.607Z,0
2017-11-29T06:04:16.607Z,0
2017-11-29T06:05:16.564Z,0
2017-11-29T06:06:16.271Z,0
2017-11-29T06:07:16.307Z,0
2017-11-29T06:08:15.969Z,0
2017-11-29T06:09:16.738Z,0
2017-11-29T06:10:16.458Z,0
2017-11-29T06:11:15.893Z,0
2017-11-29T06:12:16.395Z,0
2017-11-29T06:13:16.403Z,0
2017-11-29T06:14:16.396Z,0
2017-11-29T06:15:16.068Z,0
2017-11-29T06:16:17.044Z,0
2017-11-29T06:17:16.326Z,0
2017-11-29T06:18:16.282Z,0
2017-11-29T06:19:15.738Z,0
2017-11-29T06:20:16.512Z,0
2017-11-29T06:21:16.220Z,0
2017-11-29T06:22:16.189Z,0
2017-11-29T06:23:16.427Z,0
2017-11-29T06:24:15.314Z,0
2017-11-29T06:25:16.129Z,0
2017-11-29T06:26:16.124Z,0
2017-11-29T06:27:15.808Z,0
2017-11-29T06:28:16.064Z,0
2017-11-29T06:29:16.328Z,0
2017-11-29T06:30:15.458Z,0
2017-11-29T06:31:15.697Z,0
2017-11-29T06:32:15.124Z,0
2017-11-29T06:33:15.654Z,0
2017-11-29T06:34:15.620Z,0
2017-11-29T06:35:15.857Z,0
2017-11-29T06:36:15.591Z,0
2017-11-29T06:37:15.856Z,0
2017-11-29T06:38:15.830Z,0
2017-11-29T06:39:16.092Z,0
2017-11-29T06:40:15.501Z,0
2017-11-29T06:41:15.716Z,0
2017-11-29T06:42:15.736Z,0
2017-11-29T06:43:15.411Z,0
2017-11-29T06:44:15.698Z,0
2017-11-29T06:45:15.925Z,0
2017-11-29T06:46:15.351Z,0
2017-11-29T06:47:15.315Z,0
2017-11-29T06:48:14.754Z,0
2017-11-29T06:49:15.264Z,0
2017-11-29T06:50:15.266Z,0
2017-11-29T06:51:15.505Z,0
2017-11-29T06:52:15.732Z,0
2017-11-29T06:53:15.722Z,0
2017-11-29T06:54:15.698Z,0
2017-11-29T06:55:15.390Z,0
2017-11-29T06:56:14.836Z,0
2017-11-29T06:57:15.112Z,0
2017-11-29T06:58:14.794Z,0
2017-11-29T06:59:14.787Z,0
2017-11-29T07:00:15.013Z,0
2017-11-29T07:01:15.513Z,0
2017-11-29T07:02:14.700Z,0
2017-11-29T07:03:15.206Z,0
2017-11-29T07:04:14.913Z,0
2017-11-29T07:05:15.175Z,0
2017-11-29T07:06:15.135Z,0
2017-11-29T07:07:14.829Z,0
2017-11-29T07:08:14.825Z,0
2017-11-29T07:09:14.246Z,0
2017-11-29T07:10:14.761Z,0
2017-11-29T07:11:14.797Z,5
2017-11-29T07:12:15.015Z,5
2017-11-29T07:13:14.977Z,5
2017-11-29T07:14:14.946Z,5
2017-11-29T07:15:15.204Z,5
2017-11-29T07:16:14.936Z,5
2017-11-29T07:17:14.617Z,5
2017-11-29T07:18:14.614Z,5
2017-11-29T07:19:14.557Z,5
2017-11-29T07:20:14.822Z,5
2017-11-29T07:21:14.771Z,5
2017-11-29T07:22:14.225Z,10
2017-11-29T07:23:14.744Z,10
2017-11-29T07:24:14.455Z,10
2017-11-29T07:25:14.945Z,10
2017-11-29T07:26:14.381Z,10
2017-11-29T07:27:14.376Z,10
2017-11-29T07:28:14.603Z,15
2017-11-29T07:29:14.588Z,15
2017-11-29T07:30:14.034Z,15
2017-11-29T07:31:14.260Z,15
2017-11-29T07:32:13.963Z,15
2017-11-29T07:33:14.491Z,15
2017-11-29T07:34:14.192Z,15
2017-11-29T07:35:13.900Z,15
2017-11-29T07:36:14.412Z,15
2017-11-29T07:37:14.400Z,15
2017-11-29T07:38:14.096Z,20
2017-11-29T07:39:13.796Z,20
2017-11-29T07:40:13.781Z,20
2017-11-29T07:41:14.569Z,20
2017-11-29T07:42:13.997Z,20
2017-11-29T07:43:14.264Z,20
2017-11-29T07:44:13.690Z,20
2017-11-29T07:45:14.209Z,20
2017-11-29T07:46:13.922Z,25
2017-11-29T07:47:13.872Z,25
2017-11-29T07:48:14.414Z,25
2017-11-29T07:49:14.115Z,25
2017-11-29T07:50:13.826Z,25
2017-11-29T07:51:13.801Z,25
2017-11-29T07:52:13.797Z,25
2017-11-29T07:53:14.034Z,25
2017-11-29T07:54:13.744Z,25
2017-11-29T07:55:13.987Z,30
2017-11-29T07:56:13.952Z,30
2017-11-29T07:57:13.931Z,30
2017-11-29T07:58:13.365Z,30
2017-11-29T07:59:13.337Z,30
2017-11-29T08:00:14.237Z,30
2017-11-29T08:01:13.564Z,30
2017-11-29T08:02:13.275Z,30
2017-11-29T08:03:13.790Z,30
2017-11-29T08:04:13.234Z,35
2017-11-29T08:05:13.452Z,35
2017-11-29T08:06:13.460Z,35
2017-11-29T08:07:12.883Z,35
2017-11-29T08:08:13.685Z,35
2017-11-29T08:09:13.914Z,35
2017-11-29T08:10:13.646Z,40
2017-11-29T08:11:13.878Z,40
2017-11-29T08:12:13.572Z,40
2017-11-29T08:13:13.276Z,40
2017-11-29T08:14:13.530Z,40
2017-11-29T08:15:13.229Z,40
2017-11-29T08:16:12.943Z,40
2017-11-29T08:17:13.499Z,40
2017-11-29T08:18:13.165Z,40
2017-11-29T08:19:12.868Z,40
2017-11-29T08:20:13.666Z,40
2017-11-29T08:21:13.683Z,40
2017-11-29T08:22:13.101Z,40
2017-11-29T08:23:13.328Z,40
2017-11-29T08:24:13.301Z,40
2017-11-29T08:25:13.278Z,40
2017-11-29T08:26:12.716Z,40
2017-11-29T08:27:13.236Z,40
2017-11-29T08:28:12.670Z,45
2017-11-29T08:29:13.194Z,45
2017-11-29T08:30:12.897Z,45
2017-11-29T08:31:13.139Z,45
2017-11-29T08:32:13.101Z,45
2017-11-29T08:33:13.086Z,45
2017-11-29T08:34:12.553Z,45
2017-11-29T08:35:13.067Z,50
2017-11-29T08:36:13.283Z,50
2017-11-29T08:37:12.755Z,50
2017-11-29T08:38:13.268Z,50
2017-11-29T08:39:12.418Z,50
2017-11-29T08:40:12.655Z,55
2017-11-29T08:41:12.364Z,55
2017-11-29T08:42:12.630Z,55
2017-11-29T08:43:13.132Z,55
2017-11-29T08:44:12.292Z,60
2017-11-29T08:45:11.992Z,60
2017-11-29T08:46:12.822Z,60
2017-11-29T08:47:13.047Z,65
2017-11-29T08:48:12.760Z,65
2017-11-29T08:49:12.193Z,70
2017-11-29T08:50:12.424Z,70
2017-11-29T08:51:12.401Z,65
2017-11-29T08:52:12.673Z,65
2017-11-29T08:53:12.363Z,65
2017-11-29T08:54:12.600Z,65
2017-11-29T08:55:12.589Z,60
2017-11-29T08:56:12.293Z,60
2017-11-29T08:57:12.560Z,60
2017-11-29T08:58:12.274Z,60
2017-11-29T08:59:12.231Z,60
2017-11-29T09:00:12.209Z,60
2017-11-29T09:01:11.909Z,60
2017-11-29T09:02:12.451Z,60
2017-11-29T09:03:12.671Z,60
2017-11-29T09:04:12.670Z,60
2017-11-29T09:05:12.090Z,60
2017-11-29T09:06:12.104Z,60
2017-11-29T09:07:12.593Z,65
2017-11-29T09:08:12.570Z,70
2017-11-29T09:09:12.285Z,80
2017-11-29T09:10:11.982Z,85
2017-11-29T09:11:11.961Z,90
2017-11-29T09:12:11.679Z,95
2017-11-29T09:13:12.181Z,95
2017-11-29T09:14:12.428Z,95
2017-11-29T09:15:11.877Z,95
2017-11-29T09:16:11.591Z,100
2017-11-29T09:17:12.114Z,100
2017-11-29T09:18:11.535Z,100
2017-11-29T09:19:11.515Z,105
2017-11-29T09:20:11.489Z,110
2017-11-29T09:21:11.469Z,110
2017-11-29T09:22:11.447Z,110
2017-11-29T09:23:11.990Z,115
2017-11-29T09:24:12.225Z,115
2017-11-29T09:25:11.370Z,130
2017-11-29T09:26:11.914Z,165
2017-11-29T09:27:11.331Z,185
2017-11-29T09:28:11.339Z,180
2017-11-29T09:29:11.562Z,190
2017-11-29T09:30:11.805Z,165
2017-11-29T09:34:27.147Z,160
2017-11-29T09:35:26.625Z,165
2017-11-29T09:36:26.534Z,145
2017-11-29T09:37:26.528Z,120
2017-11-29T09:38:27.058Z,130
2017-11-29T09:39:26.762Z,145
2017-11-29T09:40:26.737Z,150
2017-11-29T09:41:26.716Z,120
2017-11-29T09:42:26.685Z,85
2017-11-29T09:43:26.961Z,65
2017-11-29T09:44:26.377Z,70
2017-11-29T09:45:26.649Z,75
2017-11-29T09:46:26.888Z,85
2017-11-29T09:47:26.601Z,85
2017-11-29T09:48:26.558Z,85
2017-11-29T09:49:26.303Z,100
2017-11-29T09:50:26.515Z,100
2017-11-29T09:51:26.233Z,100
2017-11-29T09:52:27.046Z,95
2017-11-29T09:53:26.188Z,85
2017-11-29T09:54:26.171Z,90
2017-11-29T09:55:26.692Z,90
2017-11-29T09:56:26.680Z,90
2017-11-29T09:57:26.366Z,85
2017-11-29T09:58:26.626Z,85
2017-11-29T09:59:26.333Z,90
2017-11-29T10:00:25.762Z,95
2017-11-29T10:01:26.027Z,100
2017-11-29T10:02:26.000Z,105
2017-11-29T10:03:26.242Z,105
2017-11-29T10:04:26.504Z,105
2017-11-29T10:05:25.933Z,95
2017-11-29T10:06:26.739Z,100
2017-11-29T10:07:26.160Z,105
2017-11-29T10:08:25.882Z,110
2017-11-29T10:09:26.400Z,110
2017-11-29T10:10:26.633Z,130
2017-11-29T10:11:25.804Z,135
2017-11-29T10:12:25.781Z,135
2017-11-29T10:13:26.575Z,120
2017-11-29T10:14:25.731Z,120
2017-11-29T10:15:26.282Z,115
2017-11-29T10:16:25.979Z,105
2017-11-29T10:17:25.958Z,105
2017-11-29T10:18:26.514Z,105
2017-11-29T10:19:25.928Z,95
2017-11-29T10:20:26.428Z,95
2017-11-29T10:21:26.163Z,105
2017-11-29T10:22:25.863Z,105
2017-11-29T10:23:25.564Z,105
2017-11-29T10:24:26.082Z,115
2017-11-29T10:25:25.803Z,115
2017-11-29T10:26:26.315Z,95
2017-11-29T10:27:25.755Z,80
2017-11-29T10:28:26.008Z,100
2017-11-29T10:29:26.004Z,100
2017-11-29T10:30:25.415Z,90
2017-11-29T10:31:26.216Z,95
2017-11-29T10:32:25.932Z,105
2017-11-29T10:33:25.354Z,115
2017-11-29T10:34:25.610Z,115
2017-11-29T10:35:25.582Z,125
2017-11-29T10:36:25.561Z,125
2017-11-29T10:37:25.265Z,135
2017-11-29T10:38:26.070Z,235
2017-11-29T10:39:25.517Z,250
2017-11-29T10:40:25.763Z,360
2017-11-29T10:41:25.731Z,325
2017-11-29T10:42:25.712Z,290
2017-11-29T10:43:25.414Z,210
2017-11-29T10:44:25.655Z,245
2017-11-29T10:45:25.665Z,245
2017-11-29T10:46:25.381Z,220
2017-11-29T10:47:25.335Z,225
2017-11-29T10:48:25.332Z,285
2017-11-29T10:49:25.861Z,265
2017-11-29T10:50:25.274Z,275
2017-11-29T10:51:25.534Z,230
2017-11-29T10:52:25.790Z,235
2017-11-29T10:53:25.231Z,170
2017-11-29T10:54:25.496Z,190
2017-11-29T10:55:25.455Z,205
2017-11-29T10:56:25.171Z,195
2017-11-29T10:57:24.871Z,210
2017-11-29T10:58:25.451Z,210
2017-11-29T10:59:25.377Z,165
2017-11-29T11:00:25.109Z,165
2017-11-29T11:01:25.341Z,165
2017-11-29T11:02:25.339Z,175
2017-11-29T11:03:24.764Z,160
2017-11-29T11:04:25.020Z,175
2017-11-29T11:05:25.256Z,180
2017-11-29T11:06:24.964Z,175
2017-11-29T11:07:24.968Z,180
2017-11-29T11:08:25.255Z,185
2017-11-29T11:09:24.916Z,160
2017-11-29T11:10:24.912Z,170
2017-11-29T11:11:25.168Z,170
2017-11-29T11:12:24.314Z,160
2017-11-29T11:13:25.102Z,170
2017-11-29T11:14:24.813Z,195
2017-11-29T11:15:24.806Z,220
2017-11-29T11:16:24.232Z,220
2017-11-29T11:17:25.020Z,235
2017-11-29T11:18:24.213Z,235
2017-11-29T11:19:24.717Z,210
2017-11-29T11:20:24.975Z,205
2017-11-29T11:21:24.709Z,205
2017-11-29T11:22:24.660Z,210
2017-11-29T11:23:24.637Z,195
2017-11-29T11:24:24.630Z,240
2017-11-29T11:25:25.166Z,245
2017-11-29T11:26:24.336Z,235
2017-11-29T11:27:25.111Z,190
2017-11-29T11:28:24.820Z,200
2017-11-29T11:29:24.813Z,195
2017-11-29T11:30:24.521Z,195
2017-11-29T11:31:24.499Z,190
2017-11-29T11:32:24.745Z,185
2017-11-29T11:33:24.741Z,185
2017-11-29T11:34:24.168Z,195
2017-11-29T11:35:24.678Z,215
2017-11-29T11:36:24.935Z,205
2017-11-29T11:37:24.368Z,220
2017-11-29T11:38:24.635Z,240
2017-11-29T11:39:24.887Z,250
2017-11-29T11:40:24.591Z,270
2017-11-29T11:41:24.590Z,220
2017-11-29T11:42:24.550Z,195
2017-11-29T11:43:24.018Z,190
2017-11-29T11:44:24.522Z,190
2017-11-29T11:45:24.236Z,215
2017-11-29T11:46:23.939Z,235
2017-11-29T11:47:24.461Z,220
2017-11-29T11:48:24.172Z,215
2017-11-29T11:49:24.429Z,245
2017-11-29T11:50:23.871Z,260
2017-11-29T11:51:24.387Z,230
2017-11-29T11:52:24.101Z,210
2017-11-29T11:53:24.090Z,205
2017-11-29T11:54:24.055Z,210
2017-11-29T11:55:24.326Z,185
2017-11-29T11:56:24.025Z,205
2017-11-29T11:57:24.036Z,230
2017-11-29T11:58:24.263Z,295
2017-11-29T11:59:24.245Z,325
2017-11-29T12:00:24.222Z,325
2017-11-29T12:01:24.203Z,360
2017-11-29T12:02:23.938Z,385
2017-11-29T12:03:24.184Z,420
2017-11-29T12:04:23.886Z,305
2017-11-29T12:05:23.604Z,465
2017-11-29T12:06:24.117Z,440
2017-11-29T12:07:23.856Z,445
2017-11-29T12:08:24.127Z,445
2017-11-29T12:09:24.074Z,405
2017-11-29T12:10:23.798Z,395
2017-11-29T12:11:24.050Z,395
2017-11-29T12:12:23.766Z,395
2017-11-29T12:13:23.469Z,425
2017-11-29T12:14:23.742Z,425
2017-11-29T12:15:23.992Z,400
2017-11-29T12:16:23.989Z,365
2017-11-29T12:17:23.985Z,360
2017-11-29T12:18:23.948Z,345
2017-11-29T12:19:23.669Z,355
2017-11-29T12:20:23.673Z,330
2017-11-29T12:21:23.914Z,345
2017-11-29T12:22:23.905Z,230
2017-11-29T12:23:23.876Z,190
2017-11-29T12:24:23.644Z,215
2017-11-29T12:25:23.864Z,275
2017-11-29T12:26:24.121Z,335
2017-11-29T12:27:23.311Z,185
2017-11-29T12:28:24.108Z,255
2017-11-29T12:29:23.279Z,305
2017-11-29T12:30:23.550Z,315
2017-11-29T12:31:23.797Z,310
2017-11-29T12:32:22.969Z,320
2017-11-29T12:33:23.490Z,295
2017-11-29T12:34:23.770Z,275
2017-11-29T12:35:23.743Z,285
2017-11-29T12:36:23.243Z,290
2017-11-29T12:37:23.719Z,300
2017-11-29T12:38:23.483Z,300
2017-11-29T12:39:23.695Z,300
2017-11-29T12:40:23.433Z,300
2017-11-29T12:41:23.146Z,305
2017-11-29T12:42:23.397Z,300
2017-11-29T12:43:23.421Z,300
2017-11-29T12:44:23.634Z,300
2017-11-29T12:45:23.375Z,290
2017-11-29T12:46:23.923Z,295
2017-11-29T12:47:23.650Z,300
2017-11-29T12:48:23.595Z,285
2017-11-29T12:49:22.778Z,285
2017-11-29T12:50:23.855Z,295
2017-11-29T12:51:23.572Z,295
2017-11-29T12:52:23.439Z,285
2017-11-29T12:53:23.270Z,285
2017-11-29T12:54:23.291Z,290
2017-11-29T12:55:23.524Z,290
2017-11-29T12:56:23.534Z,285
2017-11-29T12:57:23.231Z,285
2017-11-29T12:58:22.950Z,275
2017-11-29T12:59:23.490Z,270
2017-11-29T13:00:23.191Z,265
2017-11-29T13:01:23.190Z,265
2017-11-29T13:02:22.634Z,265
2017-11-29T13:03:23.440Z,265
2017-11-29T13:04:23.707Z,265
2017-11-29T13:05:23.428Z,260
2017-11-29T13:06:23.400Z,265
2017-11-29T13:07:22.853Z,265
2017-11-29T13:08:23.110Z,265
2017-11-29T13:09:22.836Z,265
2017-11-29T13:10:23.377Z,255
2017-11-29T13:11:23.350Z,250
2017-11-29T13:12:22.542Z,245
2017-11-29T13:13:23.597Z,245
2017-11-29T13:14:23.081Z,240
2017-11-29T13:15:22.772Z,230
2017-11-29T13:16:23.596Z,215
2017-11-29T13:17:23.569Z,220
2017-11-29T13:18:23.289Z,225
2017-11-29T13:19:23.006Z,215
2017-11-29T13:20:23.003Z,215
2017-11-29T13:21:22.987Z,215
2017-11-29T13:22:23.247Z,215
2017-11-29T13:23:22.698Z,210
2017-11-29T13:24:22.994Z,205
2017-11-29T13:25:23.519Z,200
2017-11-29T13:26:22.686Z,195
2017-11-29T13:27:23.241Z,195
2017-11-29T13:28:22.963Z,195
2017-11-29T13:29:22.657Z,195
2017-11-29T13:30:23.180Z,195
2017-11-29T13:31:23.176Z,195
2017-11-29T13:32:23.215Z,190
2017-11-29T13:33:23.421Z,185
2017-11-29T13:34:23.617Z,165
2017-11-29T13:35:23.151Z,150
2017-11-29T13:36:23.390Z,135
2017-11-29T13:37:22.885Z,130
2017-11-29T13:38:22.607Z,120
2017-11-29T13:39:23.090Z,110
2017-11-29T13:40:22.822Z,110
2017-11-29T13:41:23.067Z,110
2017-11-29T13:42:23.059Z,110
2017-11-29T13:43:22.498Z,110
2017-11-29T13:44:22.498Z,105
2017-11-29T13:45:22.756Z,110
2017-11-29T13:46:23.016Z,105
2017-11-29T13:47:23.046Z,100
2017-11-29T13:48:22.999Z,100
2017-11-29T13:49:22.725Z,100
2017-11-29T13:50:23.007Z,100
2017-11-29T13:51:22.966Z,100
2017-11-29T13:52:22.711Z,95
2017-11-29T13:53:22.940Z,90
2017-11-29T13:54:22.656Z,85
2017-11-29T13:55:22.634Z,80
2017-11-29T13:56:22.908Z,80
2017-11-29T13:57:22.661Z,75
2017-11-29T13:58:22.918Z,75
2017-11-29T13:59:22.881Z,75
2017-11-29T14:00:22.854Z,65
2017-11-29T14:01:22.825Z,60
2017-11-29T14:02:22.806Z,60
2017-11-29T14:03:22.785Z,60
2017-11-29T14:04:22.502Z,60
2017-11-29T14:05:22.754Z,60
2017-11-29T14:06:22.216Z,60
2017-11-29T14:07:22.241Z,65
2017-11-29T14:08:22.456Z,65
2017-11-29T14:09:22.176Z,70
2017-11-29T14:10:22.696Z,70
2017-11-29T14:11:22.716Z,65
2017-11-29T14:12:22.393Z,65
2017-11-29T14:13:22.406Z,70
2017-11-29T14:14:22.623Z,70
2017-11-29T14:15:22.363Z,70
2017-11-29T14:16:22.612Z,75
2017-11-29T14:17:22.587Z,75
2017-11-29T14:18:22.604Z,75
2017-11-29T14:19:22.265Z,70
2017-11-29T14:20:21.994Z,70
2017-11-29T14:21:22.001Z,70
2017-11-29T14:22:22.484Z,65
2017-11-29T14:23:22.213Z,65
2017-11-29T14:24:21.912Z,65
2017-11-29T14:25:22.162Z,65